Time;durP1;ratioP1;P1;durP2;ratioP2;P2;SDS_P1;SDS_P2;PMS_P1;PMS_P2;Temp;Humidity;BMP_temperature;BMP_pressure;BME280_temperature;BME280_humidity;BME280_pressure;Samples;Min_cycle;Max_cycle;Signal;HPM_P1;HPM_P2
2021/12/25 00:01:04;;;;;;;21.15;11.77;;;6.30;99.90;;;;;;5051780;28;20028;-80
2021/12/25 00:03:29;;;;;;;23.52;13.68;;;6.30;99.90;;;;;;5051789;28;20459;-80
2021/12/25 00:05:55;;;;;;;21.40;12.27;;;6.40;99.90;;;;;;5051749;28;20063;-80
2021/12/25 00:08:23;;;;;;;18.75;12.88;;;6.40;99.90;;;;;;5051672;28;20043;-80
2021/12/25 00:10:50;;;;;;;24.40;12.82;;;6.50;99.90;;;;;;5051669;28;20032;-80
2021/12/25 00:13:18;;;;;;;22.30;13.50;;;6.60;99.90;;;;;;5051666;28;20481;-80
2021/12/25 00:15:44;;;;;;;25.52;14.13;;;6.60;99.90;;;;;;5051645;28;20033;-81
2021/12/25 00:18:09;;;;;;;25.65;14.50;;;6.60;99.90;;;;;;5051623;28;20078;-80
2021/12/25 00:20:35;;;;;;;22.85;13.93;;;6.50;99.90;;;;;;5051590;28;20052;-80
2021/12/25 00:23:04;;;;;;;21.52;14.32;;;6.50;99.90;;;;;;5051536;28;20389;-81
2021/12/25 00:25:35;;;;;;;23.38;12.43;;;6.60;99.90;;;;;;5051533;28;20035;-80
2021/12/25 00:32:57;;;;;;;22.20;13.15;;;6.30;99.90;;;;;;5053152;28;20579;-80
2021/12/25 00:35:22;;;;;;;21.42;13.88;;;6.30;99.90;;;;;;5052771;28;20021;-80
2021/12/25 00:37:48;;;;;;;22.55;13.60;;;6.30;99.90;;;;;;5052722;28;20039;-80
2021/12/25 00:40:14;;;;;;;22.63;14.13;;;6.30;99.90;;;;;;5052478;28;20116;-80
2021/12/25 00:42:40;;;;;;;19.77;12.70;;;6.30;99.90;;;;;;5051343;28;20465;-80
2021/12/25 00:45:06;;;;;;;25.20;14.73;;;6.20;99.90;;;;;;5051417;28;20044;-80
2021/12/25 00:47:32;;;;;;;22.48;15.18;;;6.30;99.90;;;;;;5051269;28;20554;-80
2021/12/25 00:49:58;;;;;;;21.42;14.02;;;6.30;99.90;;;;;;5051324;28;20033;-80
2021/12/25 00:52:24;;;;;;;24.00;15.45;;;6.30;99.90;;;;;;5052596;28;20025;-80
2021/12/25 00:54:49;;;;;;;23.35;14.57;;;6.30;99.90;;;;;;5051199;28;20025;-80
2021/12/25 00:57:15;;;;;;;27.10;15.80;;;6.40;99.90;;;;;;5052506;28;20028;-80
2021/12/25 00:59:41;;;;;;;23.33;15.07;;;6.40;99.90;;;;;;5051260;28;20029;-80
2021/12/25 01:02:07;;;;;;;23.65;15.40;;;6.40;99.90;;;;;;5052782;28;20029;-80
2021/12/25 01:04:33;;;;;;;19.90;14.23;;;6.40;99.90;;;;;;5051155;28;20477;-81
2021/12/25 01:06:58;;;;;;;24.50;14.77;;;6.30;99.90;;;;;;5052456;28;20520;-80
2021/12/25 01:09:24;;;;;;;23.70;15.43;;;6.20;99.90;;;;;;5054308;28;20040;-81
2021/12/25 01:11:51;;;;;;;27.17;16.98;;;6.20;99.90;;;;;;5054803;28;20064;-80
2021/12/25 01:41:00;;;;;;;29.00;17.23;;;6.20;99.90;;;;;;5055891;28;20057;-80
2021/12/25 01:48:54;;;;;;;26.10;17.35;;;6.30;99.90;;;;;;5055768;28;20389;-79
2021/12/25 01:51:20;;;;;;;29.27;18.08;;;6.20;99.90;;;;;;5054150;28;20021;-79
2021/12/25 01:53:45;;;;;;;30.98;18.98;;;6.30;99.90;;;;;;5055419;28;20517;-79
2021/12/25 01:56:11;;;;;;;24.27;17.17;;;6.30;99.90;;;;;;5054064;28;20052;-79
2021/12/25 01:58:37;;;;;;;29.98;18.15;;;6.30;99.90;;;;;;5055307;28;20060;-79
2021/12/25 02:01:06;;;;;;;27.55;17.92;;;6.30;99.90;;;;;;5053950;28;20501;-79
2021/12/25 02:03:33;;;;;;;25.33;17.85;;;6.30;99.90;;;;;;5055115;28;20116;-79
2021/12/25 02:05:59;;;;;;;27.67;17.75;;;6.30;99.90;;;;;;5055154;28;20052;-79
2021/12/25 02:08:26;;;;;;;23.33;15.70;;;6.30;99.90;;;;;;5054108;28;20028;-79
2021/12/25 02:10:52;;;;;;;25.02;16.35;;;6.30;99.90;;;;;;5053855;28;20036;-79
2021/12/25 02:13:18;;;;;;;23.30;15.93;;;6.30;99.90;;;;;;5055063;28;20025;-78
2021/12/25 02:15:48;;;;;;;27.23;17.15;;;6.30;99.90;;;;;;5053726;28;20032;-78
2021/12/25 02:18:22;;;;;;;21.75;14.68;;;6.30;99.90;;;;;;5055001;28;20067;-77
2021/12/25 02:21:00;;;;;;;19.00;13.98;;;6.30;99.90;;;;;;5054046;28;20070;-78
2021/12/25 02:23:26;;;;;;;21.05;14.02;;;6.30;99.90;;;;;;5053576;28;20033;-78
2021/12/25 02:25:56;;;;;;;24.98;14.93;;;6.30;99.90;;;;;;5054825;28;20389;-78
2021/12/25 02:28:23;;;;;;;29.60;13.88;;;6.30;99.90;;;;;;5053460;28;20508;-78
2021/12/25 02:30:51;;;;;;;22.48;14.68;;;6.30;99.90;;;;;;5053403;28;20032;-78
2021/12/25 02:33:17;;;;;;;21.92;15.23;;;6.20;99.90;;;;;;5053387;28;20021;-78
2021/12/25 02:35:44;;;;;;;23.52;14.20;;;6.20;99.90;;;;;;5036937;28;20029;-79
2021/12/25 02:38:10;;;;;;;24.38;14.85;;;6.20;99.90;;;;;;5054533;28;20087;-79
2021/12/25 02:40:36;;;;;;;21.58;15.23;;;6.10;99.90;;;;;;5053108;28;20072;-79
2021/12/25 02:43:02;;;;;;;17.75;13.65;;;6.10;99.90;;;;;;5054400;28;20095;-79
2021/12/25 02:45:27;;;;;;;23.58;14.40;;;6.10;99.90;;;;;;5053153;28;20021;-79
2021/12/25 02:47:55;;;;;;;24.67;15.32;;;6.10;99.90;;;;;;5053045;28;20021;-79
2021/12/25 02:50:31;;;;;;;28.10;15.98;;;6.10;99.90;;;;;;5053014;28;20025;-79
2021/12/25 02:52:59;;;;;;;23.30;16.17;;;6.10;99.90;;;;;;5053073;28;20025;-79
2021/12/25 02:55:26;;;;;;;27.00;15.00;;;6.00;99.90;;;;;;5036539;28;20029;-79
2021/12/25 02:57:52;;;;;;;23.75;15.98;;;6.00;99.90;;;;;;5054194;28;20104;-79
2021/12/25 03:00:24;;;;;;;24.25;15.88;;;6.00;99.90;;;;;;5054116;28;20036;-79
2021/12/25 03:02:50;;;;;;;27.42;15.98;;;6.10;99.90;;;;;;5052850;28;20035;-79
2021/12/25 03:05:17;;;;;;;24.05;15.13;;;6.00;99.90;;;;;;5052856;28;20070;-79
2021/12/25 03:07:43;;;;;;;23.95;15.25;;;6.00;99.90;;;;;;5052722;28;20070;-79
2021/12/25 03:10:11;;;;;;;24.00;13.63;;;6.10;99.90;;;;;;5053925;28;20025;-80
2021/12/25 03:12:49;;;;;;;25.90;15.10;;;6.10;99.90;;;;;;5054214;28;20021;-79
2021/12/25 03:15:25;;;;;;;21.23;15.05;;;6.10;99.90;;;;;;5052632;28;20052;-80
2021/12/25 03:17:51;;;;;;;24.05;14.98;;;6.10;99.90;;;;;;5052583;28;20025;-78
2021/12/25 03:20:17;;;;;;;22.52;14.77;;;6.10;99.90;;;;;;5052447;28;20025;-78
2021/12/25 03:22:43;;;;;;;24.83;14.52;;;6.10;99.90;;;;;;5053632;28;20051;-79
2021/12/25 03:25:11;;;;;;;23.67;14.05;;;6.10;99.90;;;;;;5052453;28;20031;-79
2021/12/25 03:27:40;;;;;;;24.48;14.65;;;6.20;99.90;;;;;;5053624;28;20523;-78
2021/12/25 03:30:08;;;;;;;37.67;22.20;;;6.20;99.90;;;;;;5052332;28;20505;-78
2021/12/25 03:32:34;;;;;;;28.80;17.00;;;6.10;99.90;;;;;;5052146;28;20052;-79
2021/12/25 03:35:00;;;;;;;29.42;16.85;;;6.10;99.90;;;;;;5052249;28;20037;-78
2021/12/25 03:37:26;;;;;;;19.05;12.23;;;6.00;99.90;;;;;;5052199;28;20079;-79
2021/12/25 03:39:52;;;;;;;26.00;14.75;;;5.90;99.90;;;;;;5051974;28;20064;-78
2021/12/25 03:42:18;;;;;;;19.80;13.63;;;5.90;99.90;;;;;;5052062;28;20029;-79
2021/12/25 03:44:44;;;;;;;27.25;13.85;;;5.90;99.90;;;;;;5053426;28;20366;-78
2021/12/25 03:47:31;;;;;;;23.45;13.93;;;5.90;99.90;;;;;;5052068;28;20025;-78
2021/12/25 03:58:15;;;;;;;30.63;15.20;;;5.80;99.90;;;;;;5053735;28;20083;-79
2021/12/25 04:00:44;;;;;;;24.73;15.00;;;5.80;99.90;;;;;;5051898;28;20040;-78
2021/12/25 04:03:18;;;;;;;30.42;14.68;;;5.70;99.90;;;;;;5053014;28;20024;-79
2021/12/25 04:05:46;;;;;;;;;;;5.70;99.90;;;;;;5053870;28;20456;-79
2021/12/25 04:08:16;;;;;;;22.38;13.38;;;5.70;99.90;;;;;;5051742;28;20003;-79
2021/12/25 04:10:45;;;;;;;26.80;13.88;;;5.60;99.90;;;;;;5051715;28;20029;-79
2021/12/25 04:13:14;;;;;;;27.30;13.95;;;5.60;99.90;;;;;;5051735;28;20079;-79
2021/12/25 04:15:40;;;;;;;40.60;16.10;;;5.60;99.90;;;;;;5052968;28;20345;-79
2021/12/25 04:18:06;;;;;;;29.48;15.75;;;5.60;99.90;;;;;;5052934;28;20430;-79
2021/12/25 04:20:32;;;;;;;33.05;15.75;;;5.60;99.90;;;;;;5053468;28;20021;-79
2021/12/25 04:23:03;;;;;;;36.85;15.32;;;5.60;99.90;;;;;;5053055;28;20491;-79
2021/12/25 04:25:33;;;;;;;27.42;15.93;;;5.60;99.90;;;;;;5053220;28;20032;-79
2021/12/25 04:31:28;;;;;;;30.90;15.32;;;5.60;99.90;;;;;;5049103;28;20035;-79
2021/12/25 05:03:56;;;;;;;13.63;8.45;;;5.60;99.90;;;;;;5056370;28;20098;-79
2021/12/25 05:06:23;;;;;;;16.80;8.90;;;5.70;99.90;;;;;;5055080;28;20025;-79
2021/12/25 05:08:51;;;;;;;14.07;8.43;;;5.70;99.90;;;;;;5055056;28;20021;-79
2021/12/25 05:11:17;;;;;;;16.17;8.40;;;5.70;99.90;;;;;;5054951;28;20021;-79
2021/12/25 05:13:45;;;;;;;17.85;9.52;;;5.70;99.90;;;;;;5054906;28;20052;-79
2021/12/25 05:16:11;;;;;;;20.58;10.57;;;5.80;99.90;;;;;;5054853;28;20025;-79
2021/12/25 05:18:37;;;;;;;17.95;9.82;;;5.80;99.90;;;;;;5056142;28;20024;-79
2021/12/25 05:21:03;;;;;;;19.08;10.98;;;5.90;99.90;;;;;;5056065;28;20025;-79
2021/12/25 05:23:29;;;;;;;22.50;11.15;;;5.90;99.90;;;;;;5054719;28;20029;-80
2021/12/25 05:25:55;;;;;;;16.38;10.38;;;6.00;99.90;;;;;;5056309;28;20017;-79
2021/12/25 05:28:27;;;;;;;20.92;12.32;;;6.00;99.90;;;;;;5055961;28;20533;-79
2021/12/25 05:30:54;;;;;;;20.77;11.02;;;6.00;99.90;;;;;;5056178;28;20021;-79
2021/12/25 05:33:21;;;;;;;16.35;10.32;;;5.90;99.90;;;;;;5037946;28;20029;-79
2021/12/25 05:35:47;;;;;;;17.27;10.40;;;5.90;99.90;;;;;;5055801;28;20025;-79
2021/12/25 05:38:14;;;;;;;20.27;11.82;;;5.90;99.90;;;;;;5054441;28;20040;-79
2021/12/25 05:40:45;;;;;;;23.00;11.80;;;5.90;99.90;;;;;;5055482;28;20063;-79
2021/12/25 05:43:12;;;;;;;23.60;13.82;;;6.00;99.90;;;;;;5055523;28;20059;-79
2021/12/25 05:45:38;;;;;;;22.63;12.45;;;6.00;99.90;;;;;;5054310;28;20370;-79
2021/12/25 05:48:04;;;;;;;30.85;14.77;;;6.00;99.90;;;;;;5055459;28;20024;-79
2021/12/25 05:50:30;;;;;;;27.80;16.63;;;6.10;99.90;;;;;;5054177;28;20029;-79
2021/12/25 05:52:56;;;;;;;32.47;18.00;;;6.10;99.90;;;;;;5055696;28;20035;-79
2021/12/25 05:55:23;;;;;;;34.05;17.77;;;6.10;99.90;;;;;;5052843;28;20075;-79
2021/12/25 05:57:49;;;;;;;31.92;17.08;;;6.10;99.90;;;;;;5055675;28;20029;-79
2021/12/25 06:00:16;;;;;;;25.27;14.63;;;6.10;99.90;;;;;;5054039;28;20029;-79
2021/12/25 06:02:42;;;;;;;23.08;12.23;;;6.10;99.90;;;;;;5055492;28;20033;-79
2021/12/25 06:05:08;;;;;;;25.73;14.55;;;6.10;99.90;;;;;;5053971;28;20051;-79
2021/12/25 06:07:34;;;;;;;29.30;16.30;;;6.20;99.90;;;;;;5055436;28;20100;-79
2021/12/25 06:10:00;;;;;;;27.35;15.90;;;6.30;99.90;;;;;;5053901;28;20017;-79
2021/12/25 06:12:27;;;;;;;22.27;14.10;;;6.30;99.90;;;;;;5055115;28;20096;-79
2021/12/25 06:14:54;;;;;;;31.25;17.70;;;6.40;99.90;;;;;;5055084;28;20049;-79
2021/12/25 06:17:20;;;;;;;23.75;15.68;;;6.40;99.90;;;;;;5053735;28;20570;-79
2021/12/25 06:19:46;;;;;;;26.75;16.40;;;6.40;99.90;;;;;;5053705;28;20052;-79
2021/12/25 06:22:12;;;;;;;24.92;14.90;;;6.40;99.90;;;;;;5053500;28;20029;-79
2021/12/25 06:24:40;;;;;;;30.15;15.10;;;6.40;99.90;;;;;;5054894;28;20021;-79
2021/12/25 06:27:06;;;;;;;23.10;14.45;;;6.40;99.90;;;;;;5053540;28;20438;-79
2021/12/25 06:29:32;;;;;;;32.22;17.00;;;6.50;99.90;;;;;;5053471;28;20059;-79
2021/12/25 06:31:58;;;;;;;25.55;14.30;;;6.50;99.90;;;;;;5054698;28;20100;-79
2021/12/25 06:34:24;;;;;;;24.30;13.30;;;6.50;99.90;;;;;;5054202;28;20430;-79
2021/12/25 06:36:50;;;;;;;20.10;12.73;;;6.60;99.90;;;;;;5054615;28;20100;-79
2021/12/25 06:39:16;;;;;;;24.13;12.82;;;6.60;99.90;;;;;;5054583;28;20075;-79
2021/12/25 06:41:43;;;;;;;18.98;11.65;;;6.70;99.90;;;;;;5055087;28;20029;-79
2021/12/25 06:44:09;;;;;;;19.23;10.98;;;6.70;99.90;;;;;;5054418;28;20033;-78
2021/12/25 06:46:35;;;;;;;16.60;9.75;;;6.80;99.90;;;;;;5053194;28;20551;-79
2021/12/25 06:49:01;;;;;;;17.23;9.43;;;6.80;99.90;;;;;;5053055;28;20032;-79
2021/12/25 06:51:26;;;;;;;14.55;9.57;;;6.80;99.90;;;;;;5054361;28;20021;-79
2021/12/25 06:53:52;;;;;;;12.65;8.77;;;6.90;99.90;;;;;;5053041;28;20029;-78
2021/12/25 06:56:18;;;;;;;14.18;8.13;;;7.00;99.90;;;;;;5052960;28;20029;-78
2021/12/25 06:58:44;;;;;;;12.45;8.20;;;7.00;99.90;;;;;;5054452;28;20067;-78
2021/12/25 07:01:10;;;;;;;11.20;6.93;;;7.10;99.90;;;;;;5054195;28;20029;-78
2021/12/25 07:03:36;;;;;;;16.13;7.88;;;7.20;99.90;;;;;;5052762;28;20028;-79
2021/12/25 07:06:02;;;;;;;12.60;7.70;;;7.20;99.90;;;;;;5053929;28;20419;-78
2021/12/25 07:08:27;;;;;;;11.15;7.97;;;7.20;99.90;;;;;;5054045;28;20481;-78
2021/12/25 07:10:53;;;;;;;12.05;7.90;;;7.10;99.90;;;;;;5052706;28;20025;-79
2021/12/25 07:13:20;;;;;;;12.77;8.63;;;7.00;99.90;;;;;;5053902;28;20094;-79
2021/12/25 07:15:47;;;;;;;12.98;8.23;;;7.00;99.90;;;;;;5052569;28;20029;-79
2021/12/25 07:18:13;;;;;;;14.93;9.73;;;6.90;99.90;;;;;;5052559;28;20063;-79
2021/12/25 07:20:39;;;;;;;18.45;10.88;;;6.90;99.90;;;;;;5052535;28;20059;-79
2021/12/25 07:23:06;;;;;;;13.57;9.50;;;6.80;99.90;;;;;;5052344;28;20150;-79
2021/12/25 07:25:32;;;;;;;16.98;10.30;;;6.70;99.90;;;;;;5052437;28;20485;-79
2021/12/25 07:27:57;;;;;;;16.13;9.93;;;6.70;99.90;;;;;;5053658;28;20488;-79
2021/12/25 07:30:23;;;;;;;17.75;10.73;;;6.70;99.90;;;;;;5053881;28;20091;-79
2021/12/25 07:32:49;;;;;;;18.13;10.40;;;6.70;99.90;;;;;;5052325;28;20032;-79
2021/12/25 07:35:15;;;;;;;19.05;11.05;;;6.60;99.90;;;;;;5053831;28;20362;-79
2021/12/25 07:37:41;;;;;;;18.80;11.95;;;6.60;99.90;;;;;;5052220;28;20431;-79
2021/12/25 07:40:09;;;;;;;21.30;11.95;;;6.50;99.90;;;;;;5059582;28;20130;-79
2021/12/25 07:42:35;;;;;;;20.38;12.45;;;6.60;99.90;;;;;;5053342;28;20032;-79
2021/12/25 07:45:06;;;;;;;25.77;12.98;;;6.50;99.90;;;;;;5053387;28;20055;-79
2021/12/25 07:47:40;;;;;;;21.98;12.15;;;6.50;99.90;;;;;;5053319;28;20476;-79
2021/12/25 07:50:06;;;;;;;20.23;12.87;;;6.50;99.90;;;;;;5052079;28;20075;-79
2021/12/25 07:52:32;;;;;;;23.58;13.48;;;6.60;99.90;;;;;;5051986;28;20052;-79
2021/12/25 07:54:58;;;;;;;19.70;12.27;;;6.60;99.90;;;;;;5051957;28;20063;-79
2021/12/25 07:57:24;;;;;;;25.77;13.35;;;6.60;99.90;;;;;;5051872;28;20121;-79
2021/12/25 07:59:50;;;;;;;20.65;12.95;;;6.60;99.90;;;;;;5051834;28;20056;-79
2021/12/25 08:02:16;;;;;;;21.80;13.35;;;6.60;99.90;;;;;;5051704;28;20425;-79
2021/12/25 08:04:42;;;;;;;22.08;13.80;;;6.60;99.90;;;;;;5051835;28;20044;-79
2021/12/25 08:07:07;;;;;;;22.20;12.38;;;6.60;99.90;;;;;;5051809;28;20021;-79
2021/12/25 08:09:35;;;;;;;21.58;11.57;;;6.60;99.90;;;;;;5053019;28;20377;-79
2021/12/25 08:12:02;;;;;;;22.60;12.10;;;6.60;99.90;;;;;;5053220;28;20017;-79
2021/12/25 08:14:29;;;;;;;19.30;11.68;;;6.60;99.90;;;;;;5052880;28;20416;-79
2021/12/25 08:16:57;;;;;;;19.13;11.68;;;6.60;99.90;;;;;;5052525;28;20108;-79
2021/12/25 08:19:23;;;;;;;22.35;11.88;;;6.60;99.90;;;;;;5051172;28;20021;-79
2021/12/25 08:21:50;;;;;;;28.83;18.92;;;6.60;99.90;;;;;;5052917;28;20032;-79
2021/12/25 08:24:17;;;;;;;20.08;13.80;;;6.60;99.90;;;;;;5051821;28;20490;-80
2021/12/25 08:26:43;;;;;;;25.38;15.93;;;6.60;99.90;;;;;;5051551;28;20480;-80
2021/12/25 08:29:10;;;;;;;23.60;13.93;;;6.70;99.90;;;;;;5052797;28;20122;-79
2021/12/25 08:31:35;;;;;;;23.65;14.85;;;6.70;99.90;;;;;;5051577;28;20370;-80
2021/12/25 08:34:02;;;;;;;30.50;17.65;;;6.70;99.90;;;;;;5053108;28;20104;-79
2021/12/25 08:36:28;;;;;;;35.13;23.95;;;6.70;99.90;;;;;;5052775;28;20079;-80
2021/12/25 08:38:54;;;;;;;33.28;21.98;;;6.70;99.90;;;;;;5051477;28;20028;-80
2021/12/25 08:41:21;;;;;;;26.38;17.42;;;6.70;99.90;;;;;;5052734;28;20040;-80
2021/12/25 08:43:49;;;;;;;22.67;14.38;;;6.80;99.90;;;;;;5051293;28;20033;-79
2021/12/25 08:46:24;;;;;;;24.00;15.25;;;6.80;99.90;;;;;;5035075;28;20036;-80
2021/12/25 08:48:52;;;;;;;22.23;13.40;;;6.80;99.90;;;;;;5051367;28;20115;-79
2021/12/25 08:51:17;;;;;;;23.83;12.27;;;6.80;99.90;;;;;;5052625;28;20021;-79
2021/12/25 08:53:43;;;;;;;15.52;10.85;;;6.90;99.90;;;;;;5052841;28;20033;-80
2021/12/25 08:56:09;;;;;;;20.85;11.65;;;7.00;99.90;;;;;;5051523;28;20090;-80
2021/12/25 08:58:35;;;;;;;15.10;10.70;;;7.00;99.90;;;;;;5051212;28;20107;-80
2021/12/25 09:01:05;;;;;;;18.85;11.35;;;7.10;99.90;;;;;;5051251;28;20021;-79
2021/12/25 09:03:31;;;;;;;15.63;9.45;;;7.00;99.90;;;;;;5052720;28;20029;-79
2021/12/25 09:05:59;;;;;;;12.82;7.78;;;7.00;99.90;;;;;;5052471;28;20380;-80
2021/12/25 09:08:25;;;;;;;9.15;6.93;;;7.10;99.90;;;;;;5052044;28;20052;-80
2021/12/25 09:10:52;;;;;;;10.93;6.53;;;7.10;99.90;;;;;;5052374;28;20029;-79
2021/12/25 09:13:17;;;;;;;8.52;6.07;;;7.10;99.90;;;;;;5052465;28;20025;-80
2021/12/25 09:15:43;;;;;;;9.25;5.88;;;7.10;99.90;;;;;;5052452;28;20028;-80
2021/12/25 09:18:09;;;;;;;13.25;7.40;;;7.10;99.90;;;;;;5052400;28;20095;-79
2021/12/25 09:20:36;;;;;;;17.38;10.65;;;7.20;99.90;;;;;;5052370;28;20424;-79
2021/12/25 09:23:02;;;;;;;43.47;24.50;;;7.20;99.90;;;;;;5050993;28;20031;-79
2021/12/25 09:25:28;;;;;;;17.52;13.00;;;7.30;99.90;;;;;;5052295;28;20025;-79
2021/12/25 09:27:54;;;;;;;16.10;11.35;;;7.20;99.90;;;;;;5050977;28;20416;-79
2021/12/25 09:30:21;;;;;;;14.75;11.32;;;7.20;99.90;;;;;;5053943;28;20047;-79
2021/12/25 09:32:48;;;;;;;16.08;10.93;;;7.20;99.90;;;;;;5054523;28;20029;-79
2021/12/25 09:35:14;;;;;;;16.05;8.75;;;7.30;99.90;;;;;;5054455;28;20121;-79
2021/12/25 09:37:40;;;;;;;12.35;8.15;;;7.30;99.90;;;;;;5054482;28;20040;-79
2021/12/25 09:40:08;;;;;;;16.25;9.90;;;7.30;99.90;;;;;;5054199;28;20500;-79
2021/12/25 09:42:35;;;;;;;17.95;12.23;;;7.30;99.90;;;;;;5054381;28;20396;-80
2021/12/25 09:45:01;;;;;;;18.52;11.48;;;7.30;99.90;;;;;;5055121;28;20104;-80
2021/12/25 09:47:27;;;;;;;18.05;10.48;;;7.30;99.90;;;;;;5055466;28;20047;-79
2021/12/25 09:49:53;;;;;;;14.70;9.45;;;7.30;99.90;;;;;;5055406;28;20017;-79
2021/12/25 09:52:20;;;;;;;15.00;9.20;;;7.30;99.90;;;;;;5055761;28;20170;-80
2021/12/25 09:54:45;;;;;;;13.32;7.75;;;7.30;99.90;;;;;;5054128;28;20112;-80
2021/12/25 09:57:14;;;;;;;15.93;8.48;;;7.30;99.90;;;;;;5055393;28;20045;-79
2021/12/25 09:59:40;;;;;;;11.90;8.05;;;7.40;99.90;;;;;;5053870;28;20021;-80
2021/12/25 10:02:14;;;;;;;12.18;7.47;;;7.40;99.90;;;;;;5055301;28;20074;-80
2021/12/25 10:04:41;;;;;;;11.45;7.35;;;7.40;99.90;;;;;;5053969;28;20029;-79
2021/12/25 10:07:29;;;;;;;8.73;6.35;;;7.50;99.90;;;;;;5053873;28;20036;-80
2021/12/25 10:10:10;;;;;;;12.48;7.32;;;7.50;99.90;;;;;;5055411;28;20025;-80
2021/12/25 10:12:47;;;;;;;12.10;6.50;;;7.50;99.90;;;;;;5055303;28;20468;-80
2021/12/25 10:15:22;;;;;;;12.75;7.50;;;7.50;99.90;;;;;;5053721;28;20029;-80
2021/12/25 10:17:49;;;;;;;21.38;14.25;;;7.60;99.90;;;;;;5053799;28;20040;-80
2021/12/25 10:20:21;;;;;;;30.23;18.08;;;7.50;99.90;;;;;;5054936;28;20025;-80
2021/12/25 10:23:13;;;;;;;36.72;21.08;;;7.50;99.90;;;;;;5053649;28;20417;-80
2021/12/25 10:25:55;;;;;;;48.83;24.55;;;7.50;99.90;;;;;;5054362;28;20443;-80
2021/12/25 10:28:27;;;;;;;51.92;26.73;;;7.50;99.90;;;;;;5054782;28;20541;-80
2021/12/25 10:31:07;;;;;;;47.13;27.65;;;7.60;99.90;;;;;;5053516;28;20389;-80
2021/12/25 10:33:41;;;;;;;36.75;24.10;;;7.70;99.90;;;;;;5055006;28;20108;-80
2021/12/25 10:36:28;;;;;;;37.15;23.92;;;7.70;99.90;;;;;;5053426;28;20021;-80
2021/12/25 10:39:00;;;;;;;29.83;19.70;;;7.80;99.90;;;;;;5053390;28;20477;-80
2021/12/25 10:41:26;;;;;;;22.92;14.32;;;7.90;99.90;;;;;;5052287;28;20051;-80
2021/12/25 10:44:14;;;;;;;17.67;12.23;;;7.90;99.90;;;;;;5053031;28;20416;-80
2021/12/25 10:47:00;;;;;;;18.52;13.30;;;8.10;99.90;;;;;;5053016;28;20029;-80
2021/12/25 10:49:29;;;;;;;20.00;10.60;;;8.20;99.90;;;;;;5054160;28;20106;-80
2021/12/25 10:52:08;;;;;;;14.68;10.02;;;8.30;99.90;;;;;;5052972;28;20380;-80
2021/12/25 10:54:41;;;;;;;8.98;6.22;;;8.50;99.90;;;;;;5054524;28;20029;-80
2021/12/25 10:57:07;;;;;;;7.75;5.10;;;8.70;99.90;;;;;;5054165;28;20025;-80
2021/12/25 10:59:51;;;;;;;5.22;2.97;;;9.10;99.90;;;;;;5052812;28;20043;-80
2021/12/25 11:02:38;;;;;;;10.68;4.40;;;9.30;99.90;;;;;;5052732;28;20025;-80
2021/12/25 11:05:26;;;;;;;5.25;2.30;;;9.40;99.90;;;;;;5053897;28;20031;-80
2021/12/25 11:08:12;;;;;;;69.65;16.45;;;9.40;99.90;;;;;;5049346;28;20370;-80
2021/12/25 11:10:48;;;;;;;6.90;3.50;;;9.40;99.90;;;;;;5052647;28;20017;-80
2021/12/25 11:13:25;;;;;;;3.05;1.83;;;9.30;99.90;;;;;;5052625;28;20021;-80
2021/12/25 11:15:56;;;;;;;2.40;1.90;;;9.30;99.90;;;;;;5052499;28;20485;-80
2021/12/25 11:18:22;;;;;;;4.63;2.70;;;9.40;99.90;;;;;;5054004;28;20029;-80
2021/12/25 11:20:48;;;;;;;4.15;1.90;;;9.50;99.90;;;;;;5054033;28;20032;-80
2021/12/25 11:23:15;;;;;;;3.40;1.80;;;9.40;99.90;;;;;;5053633;28;20029;-80
2021/12/25 11:25:43;;;;;;;3.15;1.60;;;9.20;99.90;;;;;;5053601;28;20053;-80
2021/12/25 11:28:11;;;;;;;2.15;1.70;;;9.00;99.90;;;;;;5052363;28;20100;-80
2021/12/25 11:30:40;;;;;;;3.00;1.92;;;8.90;99.90;;;;;;5054137;28;20107;-80
2021/12/25 11:33:06;;;;;;;3.25;1.70;;;8.70;99.90;;;;;;5052313;28;20025;-80
2021/12/25 11:35:34;;;;;;;2.63;1.80;;;8.70;99.90;;;;;;5052346;28;20397;-80
2021/12/25 11:38:00;;;;;;;2.22;1.65;;;8.60;99.90;;;;;;5053367;28;20503;-80
2021/12/25 11:40:28;;;;;;;6.78;4.07;;;8.60;99.90;;;;;;5051988;28;20416;-80
2021/12/25 11:42:57;;;;;;;4.10;2.00;;;8.50;99.90;;;;;;5053566;28;20029;-80
2021/12/25 11:45:35;;;;;;;2.70;1.67;;;8.50;99.90;;;;;;5052044;28;20388;-80
2021/12/25 11:48:19;;;;;;;3.22;1.58;;;8.40;99.90;;;;;;5053270;28;20025;-80
2021/12/25 11:50:52;;;;;;;2.87;2.20;;;8.40;99.90;;;;;;5053335;28;20025;-80
2021/12/25 11:53:31;;;;;;;3.13;1.90;;;8.40;99.90;;;;;;5051904;28;20283;-81
2021/12/25 11:58:53;;;;;;;3.97;2.30;;;8.30;99.90;;;;;;5053767;28;20090;-80
2021/12/25 12:01:26;;;;;;;6.38;2.83;;;8.20;99.90;;;;;;5051765;28;20032;-80
2021/12/25 12:04:15;;;;;;;2.15;1.67;;;8.30;99.90;;;;;;5053313;28;20049;-81
2021/12/25 12:06:46;;;;;;;12.50;7.63;;;8.20;99.90;;;;;;5051815;28;20021;-80
2021/12/25 12:09:23;;;;;;;11.00;7.57;;;8.20;99.90;;;;;;5052997;28;20021;-80
2021/12/25 12:12:10;;;;;;;8.73;6.20;;;8.20;99.90;;;;;;5052970;28;20427;-80
2021/12/25 12:14:36;;;;;;;8.85;5.57;;;8.20;99.90;;;;;;5051236;28;20071;-80
2021/12/25 12:17:06;;;;;;;6.18;4.10;;;8.20;99.90;;;;;;5051676;28;20025;-80
2021/12/25 12:19:32;;;;;;;5.15;3.58;;;8.20;99.90;;;;;;5052865;28;20025;-80
2021/12/25 12:22:01;;;;;;;10.20;4.05;;;8.20;99.90;;;;;;5051596;28;20033;-80
2021/12/25 12:27:04;;;;;;;22.02;14.02;;;8.30;99.90;;;;;;5052853;28;20024;-80
2021/12/25 12:29:38;;;;;;;9.57;4.60;;;8.30;99.90;;;;;;5052768;28;20504;-80
2021/12/25 12:32:26;;;;;;;4.13;2.88;;;8.30;99.90;;;;;;5052736;28;20424;-80
2021/12/25 12:34:53;;;;;;;7.22;4.00;;;8.20;99.90;;;;;;5052379;28;20079;-80
2021/12/25 12:37:23;;;;;;;12.02;5.10;;;8.20;99.90;;;;;;5051428;28;20025;-80
2021/12/25 12:40:04;;;;;;;10.35;6.85;;;8.20;99.90;;;;;;5051239;28;20028;-80
2021/12/25 12:42:45;;;;;;;4.90;3.03;;;8.20;99.90;;;;;;5053183;28;20078;-80
2021/12/25 12:45:12;;;;;;;4.72;3.45;;;8.20;99.90;;;;;;5052643;28;20477;-80
2021/12/25 12:47:39;;;;;;;16.90;9.30;;;8.20;99.90;;;;;;5052526;28;20025;-80
2021/12/25 12:50:07;;;;;;;8.27;5.53;;;8.20;99.90;;;;;;5052706;28;20044;-80
2021/12/25 12:52:39;;;;;;;8.25;4.75;;;8.20;99.90;;;;;;5051095;28;20564;-80
2021/12/25 12:55:32;;;;;;;7.93;5.10;;;8.30;99.90;;;;;;5051195;28;20484;-80
2021/12/25 12:58:15;;;;;;;14.85;10.13;;;8.30;99.90;;;;;;5051411;28;20056;-80
2021/12/25 13:00:46;;;;;;;11.90;6.80;;;8.30;99.90;;;;;;5051206;28;20032;-80
2021/12/25 13:03:13;;;;;;;10.70;6.75;;;8.30;99.90;;;;;;5051180;28;20025;-80
2021/12/25 13:05:41;;;;;;;9.80;4.55;;;8.30;99.90;;;;;;5056169;28;20017;-80
2021/12/25 13:08:32;;;;;;;11.80;6.38;;;8.20;99.90;;;;;;5056327;28;20025;-80
2021/12/25 13:11:10;;;;;;;11.25;6.50;;;8.30;99.90;;;;;;5055021;28;20495;-79
2021/12/25 13:13:41;;;;;;;11.90;6.80;;;8.20;99.90;;;;;;5055065;28;20485;-80
2021/12/25 13:16:14;;;;;;;16.20;8.68;;;8.20;99.90;;;;;;5055062;28;20473;-79
2021/12/25 13:18:51;;;;;;;9.93;6.50;;;8.30;99.90;;;;;;5055013;28;20032;-80
2021/12/25 13:21:23;;;;;;;18.17;9.90;;;8.20;99.90;;;;;;5054903;28;20271;-79
2021/12/25 13:23:54;;;;;;;15.70;8.30;;;8.20;99.90;;;;;;5054748;28;20040;-80
2021/12/25 13:26:37;;;;;;;8.52;5.88;;;8.20;99.90;;;;;;5055158;28;20032;-79
2021/12/25 13:29:05;;;;;;;8.35;4.70;;;8.20;99.90;;;;;;5056053;28;20044;-80
2021/12/25 13:31:33;;;;;;;9.95;5.38;;;8.20;99.90;;;;;;5056492;28;20580;-80
2021/12/25 13:34:03;;;;;;;6.28;4.40;;;8.20;99.90;;;;;;5056135;28;20029;-80
2021/12/25 13:36:34;;;;;;;11.30;6.00;;;8.20;99.90;;;;;;5056402;28;20103;-80
2021/12/25 13:39:12;;;;;;;10.90;6.82;;;8.20;99.90;;;;;;5054606;28;20374;-80
2021/12/25 13:41:50;;;;;;;10.20;6.07;;;8.20;99.90;;;;;;5054310;28;20175;-80
2021/12/25 13:44:24;;;;;;;10.43;6.32;;;8.10;99.90;;;;;;5054421;28;20062;-80
2021/12/25 13:47:06;;;;;;;8.50;6.20;;;8.10;99.90;;;;;;5055689;28;20488;-80
2021/12/25 13:49:45;;;;;;;8.07;5.75;;;8.10;99.90;;;;;;5054250;28;20021;-80
2021/12/25 13:52:20;;;;;;;9.75;6.15;;;8.10;99.90;;;;;;5055573;28;20021;-80
2021/12/25 13:54:55;;;;;;;7.55;5.65;;;8.10;99.90;;;;;;5054230;28;20029;-79
2021/12/25 13:57:22;;;;;;;7.30;5.80;;;8.10;99.90;;;;;;5055459;28;20021;-79
2021/12/25 13:59:54;;;;;;;10.55;5.88;;;8.10;99.90;;;;;;5054056;28;20111;-80
2021/12/25 14:02:22;;;;;;;8.57;5.28;;;8.10;99.90;;;;;;5055350;28;20021;-79
2021/12/25 14:04:53;;;;;;;14.10;9.05;;;8.10;99.90;;;;;;5053978;28;20031;-80
2021/12/25 14:07:22;;;;;;;10.02;7.38;;;8.10;99.90;;;;;;5054033;28;20055;-80
2021/12/25 14:10:07;;;;;;;8.85;6.28;;;8.10;99.90;;;;;;5055427;28;20048;-80
2021/12/25 14:12:34;;;;;;;8.98;6.65;;;8.10;99.90;;;;;;5055140;28;20047;-79
2021/12/25 14:15:00;;;;;;;9.43;6.57;;;8.00;99.90;;;;;;5054476;28;20044;-79
2021/12/25 14:17:27;;;;;;;11.20;7.22;;;8.10;99.90;;;;;;5054561;28;20025;-80